Villa Alegre, Puerto Rico
Current Conditions -  °F | °C
As of 8:56 AM on Saturday 25 Oct 2014 (Local Time) from TJSJ Reporting Station
Scattered Clouds Scattered Clouds  
Wind Chill: 85°   Ceiling: Unl
Heat Index: 93°   Visibility: 10mi
Dew Point: 75°   Wind: 0mph
Humidity: 72%   Direction: NA
Pressure: 29.95"   Gusts: NA
Location:  18.2551°N, 65.9776°W
Report Text: TJSJ 251256Z 00000KT 10SM FEW035 SCT055 SCT120 29/24 A2995 RMK AO2 SLP141 T02940239
Loading
Personal Weather Stations






























Interactive Weather Map New forecast layout! Learn more

10-Day Weather Forecast

Advertisements
Track Severe Weather on mobile